createdAt,value
2022-08-08T00:00:50.074Z,16.20
2022-08-08T00:04:00.951Z,16.10
2022-08-08T00:06:58.704Z,16.10
2022-08-08T00:10:07.195Z,16.20
2022-08-08T00:13:10.054Z,16.00
2022-08-08T00:16:03.459Z,15.90
2022-08-08T00:19:00.341Z,15.90
2022-08-08T00:21:52.197Z,15.70
2022-08-08T00:24:45.944Z,15.80
2022-08-08T00:27:37.005Z,15.80
2022-08-08T00:30:31.716Z,15.90
2022-08-08T00:33:24.169Z,15.70
2022-08-08T00:36:25.597Z,15.70
2022-08-08T00:39:36.240Z,15.70
2022-08-08T00:42:47.429Z,15.70
2022-08-08T00:46:04.846Z,15.70
2022-08-08T00:49:32.277Z,15.60
2022-08-08T00:52:40.275Z,15.60
2022-08-08T00:56:09.273Z,15.50
2022-08-08T00:59:46.425Z,15.40
2022-08-08T01:04:02.348Z,15.30
2022-08-08T01:07:06.024Z,15.30
2022-08-08T01:10:50.893Z,15.20
2022-08-08T01:14:16.320Z,15.10
2022-08-08T01:17:51.444Z,15.10
2022-08-08T01:20:56.346Z,15.10
2022-08-08T01:24:29.674Z,15.10
2022-08-08T01:27:51.419Z,15.00
2022-08-08T01:32:12.852Z,15.00
2022-08-08T01:35:01.865Z,14.90
2022-08-08T01:38:15.109Z,14.80
2022-08-08T01:41:15.837Z,14.90
2022-08-08T01:44:21.180Z,14.80
2022-08-08T01:48:14.137Z,14.80
2022-08-08T01:50:42.719Z,14.80
2022-08-08T01:55:17.936Z,14.70
2022-08-08T01:57:10.716Z,14.70
2022-08-08T02:00:14.858Z,14.70
2022-08-08T02:03:49.258Z,14.60
2022-08-08T02:06:51.971Z,14.60
2022-08-08T02:10:03.821Z,14.50
2022-08-08T02:13:04.080Z,14.50
2022-08-08T02:16:02.943Z,14.50
2022-08-08T02:18:59.601Z,14.50
2022-08-08T02:22:14.488Z,14.50
2022-08-08T02:25:16.542Z,14.40
2022-08-08T02:28:10.392Z,14.40
2022-08-08T02:31:04.933Z,14.40
2022-08-08T02:34:34.583Z,14.40
2022-08-08T02:37:52.352Z,14.40
2022-08-08T02:40:49.947Z,14.30
2022-08-08T02:44:42.372Z,14.30
2022-08-08T02:47:59.531Z,14.30
2022-08-08T02:51:30.053Z,14.30
2022-08-08T02:54:51.467Z,14.20
2022-08-08T02:58:15.814Z,14.20
2022-08-08T03:01:50.189Z,14.20
2022-08-08T03:05:45.523Z,14.10
2022-08-08T03:09:37.525Z,14.10
2022-08-08T03:13:33.993Z,14.10
2022-08-08T03:16:35.794Z,14.00
2022-08-08T03:20:03.797Z,14.00
2022-08-08T03:22:57.245Z,13.90
2022-08-08T03:25:50.369Z,13.80
2022-08-08T03:28:44.450Z,13.80
2022-08-08T03:32:06.692Z,13.80
2022-08-08T03:34:57.352Z,13.80
2022-08-08T03:37:59.954Z,13.70
2022-08-08T03:40:56.774Z,13.70
2022-08-08T03:43:55.730Z,13.60
2022-08-08T03:46:49.018Z,13.60
2022-08-08T03:50:00.994Z,13.60
2022-08-08T03:52:45.947Z,13.60
2022-08-08T03:55:57.287Z,13.60
2022-08-08T03:58:52.282Z,13.60
2022-08-08T04:02:12.248Z,13.70
2022-08-08T04:04:50.349Z,13.60
2022-08-08T04:07:39.722Z,13.60
2022-08-08T04:10:32.039Z,13.60
2022-08-08T04:13:21.660Z,13.60
2022-08-08T04:16:12.819Z,13.60
2022-08-08T04:19:06.603Z,13.60
2022-08-08T04:22:16.587Z,13.60
2022-08-08T04:25:06.356Z,13.60
2022-08-08T04:28:34.390Z,13.70
2022-08-08T04:31:04.769Z,13.70
2022-08-08T04:33:55.796Z,13.70
2022-08-08T04:36:43.861Z,13.90
2022-08-08T04:40:04.390Z,13.90
2022-08-08T04:42:55.856Z,13.90
2022-08-08T04:45:44.638Z,14.00
2022-08-08T04:48:34.449Z,14.00
2022-08-08T04:51:28.128Z,14.10
2022-08-08T04:54:40.030Z,14.20
2022-08-08T04:57:30.553Z,14.20
2022-08-08T05:00:19.896Z,14.30
2022-08-08T05:03:12.477Z,14.30
2022-08-08T05:06:01.292Z,14.40
2022-08-08T05:09:05.994Z,14.50
2022-08-08T05:11:56.479Z,14.60
2022-08-08T05:14:45.703Z,14.70
2022-08-08T05:17:53.477Z,14.80
2022-08-08T05:20:50.277Z,14.90
2022-08-08T05:23:41.358Z,15.00
2022-08-08T05:26:35.330Z,15.10
2022-08-08T05:29:23.428Z,15.20
2022-08-08T05:32:12.646Z,15.30
2022-08-08T05:35:05.187Z,15.40
2022-08-08T05:37:55.394Z,15.50
2022-08-08T05:40:50.006Z,15.60
2022-08-08T05:44:03.468Z,15.70
2022-08-08T05:46:54.610Z,15.90
2022-08-08T05:49:54.128Z,16.00
2022-08-08T05:52:44.058Z,16.10
2022-08-08T05:56:11.509Z,16.30
2022-08-08T05:58:57.982Z,16.40
2022-08-08T06:01:57.993Z,16.40
2022-08-08T06:04:54.998Z,16.70
2022-08-08T06:07:43.800Z,16.70
2022-08-08T06:10:38.476Z,16.70
2022-08-08T06:13:30.114Z,16.80
2022-08-08T06:16:30.208Z,16.90
2022-08-08T06:19:20.242Z,17.00
2022-08-08T06:25:33.227Z,17.10
2022-08-08T06:28:32.047Z,17.20
2022-08-08T06:31:22.515Z,17.40
2022-08-08T06:34:37.776Z,17.40
2022-08-08T06:37:37.225Z,17.50
2022-08-08T06:40:29.868Z,17.60
2022-08-08T06:43:30.739Z,17.70
2022-08-08T06:46:23.675Z,17.80
2022-08-08T06:49:12.516Z,18.00
2022-08-08T06:52:05.057Z,18.00
2022-08-08T06:54:55.238Z,18.10
2022-08-08T06:57:54.829Z,18.20
2022-08-08T07:00:50.217Z,18.30
2022-08-08T07:03:51.938Z,18.40
2022-08-08T07:06:57.407Z,18.60
2022-08-08T07:09:59.629Z,18.60
2022-08-08T07:12:56.413Z,18.70
2022-08-08T07:16:05.016Z,18.80
2022-08-08T07:19:06.799Z,19.10
2022-08-08T07:22:05.385Z,19.10
2022-08-08T07:25:06.768Z,19.30
2022-08-08T07:28:02.907Z,19.20
2022-08-08T07:30:58.750Z,19.40
2022-08-08T07:33:58.886Z,19.50
2022-08-08T07:36:50.516Z,19.60
2022-08-08T07:39:56.279Z,19.80
2022-08-08T07:42:52.393Z,19.90
2022-08-08T07:46:05.365Z,20.10
2022-08-08T07:48:51.464Z,20.40
2022-08-08T07:51:45.379Z,20.40
2022-08-08T07:54:49.437Z,20.40
2022-08-08T07:57:48.888Z,20.50
2022-08-08T08:00:42.974Z,20.50
2022-08-08T08:03:43.314Z,20.60
2022-08-08T08:06:34.521Z,20.70
2022-08-08T08:09:29.560Z,20.80
2022-08-08T08:12:35.512Z,20.90
2022-08-08T08:15:32.248Z,21.00
2022-08-08T08:18:31.901Z,21.20
2022-08-08T08:21:44.814Z,21.20
2022-08-08T08:24:32.055Z,21.20
2022-08-08T08:27:22.045Z,21.30
2022-08-08T08:30:11.127Z,21.50
2022-08-08T08:32:59.363Z,21.60
2022-08-08T08:36:20.026Z,21.70
2022-08-08T08:38:57.099Z,21.80
2022-08-08T08:41:48.598Z,21.90
2022-08-08T08:44:36.922Z,21.90
2022-08-08T08:47:27.271Z,22.00
2022-08-08T08:50:34.949Z,22.10
2022-08-08T08:53:54.642Z,22.20
2022-08-08T08:56:36.979Z,22.40
2022-08-08T08:59:58.645Z,22.30
2022-08-08T09:02:41.052Z,22.40
2022-08-08T09:05:53.811Z,22.40
2022-08-08T09:08:51.972Z,22.50
2022-08-08T09:11:41.710Z,22.50
2022-08-08T09:14:42.747Z,22.60
2022-08-08T09:17:41.547Z,22.70
2022-08-08T09:22:05.399Z,22.80
2022-08-08T09:23:40.793Z,22.90
2022-08-08T09:26:49.721Z,22.90
2022-08-08T09:29:52.685Z,23.00
2022-08-08T09:33:11.935Z,23.10
2022-08-08T09:35:59.468Z,23.30
2022-08-08T09:38:54.976Z,23.40
2022-08-08T09:42:20.146Z,23.60
2022-08-08T09:45:20.559Z,23.70
2022-08-08T09:48:27.014Z,23.90
2022-08-08T09:51:27.846Z,24.00
2022-08-08T09:54:37.292Z,24.10
2022-08-08T09:57:35.224Z,24.40
2022-08-08T10:00:53.212Z,24.50
2022-08-08T10:03:55.918Z,24.80
2022-08-08T10:06:45.107Z,25.20
2022-08-08T10:09:59.160Z,25.50
2022-08-08T10:12:54.318Z,25.70
2022-08-08T10:16:00.534Z,25.90
2022-08-08T10:18:55.339Z,25.80
2022-08-08T10:21:51.249Z,25.90
2022-08-08T10:24:48.297Z,26.00
2022-08-08T10:27:42.947Z,26.00
2022-08-08T10:30:59.654Z,26.00
2022-08-08T10:34:18.703Z,26.00
2022-08-08T10:36:52.786Z,25.90
2022-08-08T10:39:54.417Z,25.90
2022-08-08T10:42:44.944Z,25.90
2022-08-08T10:45:55.082Z,26.00
2022-08-08T10:48:56.700Z,26.10
2022-08-08T10:51:50.962Z,26.10
2022-08-08T10:54:41.380Z,26.20
2022-08-08T10:57:45.279Z,26.20
2022-08-08T11:00:53.352Z,26.20
2022-08-08T11:04:00.810Z,26.10
2022-08-08T11:07:00.542Z,26.10
2022-08-08T11:09:48.630Z,25.70
2022-08-08T11:12:46.858Z,25.40
2022-08-08T11:15:35.897Z,25.10
2022-08-08T11:18:44.558Z,25.10
2022-08-08T11:21:53.946Z,25.30
2022-08-08T11:24:46.918Z,25.40
2022-08-08T11:27:37.081Z,25.70
2022-08-08T11:30:31.686Z,25.70
2022-08-08T11:33:50.975Z,25.60
2022-08-08T11:36:36.419Z,25.50
2022-08-08T11:39:25.453Z,25.70
2022-08-08T11:42:17.949Z,26.00
2022-08-08T11:45:08.012Z,26.20
2022-08-08T11:48:02.645Z,26.20
2022-08-08T11:50:53.988Z,26.20
2022-08-08T11:53:59.245Z,26.10
2022-08-08T11:56:56.698Z,26.20
2022-08-08T12:00:01.328Z,26.30
2022-08-08T12:02:54.533Z,26.40
2022-08-08T12:05:43.145Z,26.20
2022-08-08T12:08:32.630Z,26.10
2022-08-08T12:11:28.444Z,26.00
2022-08-08T12:14:23.828Z,26.00
2022-08-08T12:17:17.170Z,26.00
2022-08-08T12:20:07.170Z,26.10
2022-08-08T12:22:57.088Z,26.10
2022-08-08T12:25:52.613Z,26.30
2022-08-08T12:28:54.941Z,26.40
2022-08-08T12:31:53.492Z,26.70
2022-08-08T12:34:44.226Z,26.70
2022-08-08T12:37:40.471Z,26.90
2022-08-08T12:40:54.376Z,27.10
2022-08-08T12:44:00.518Z,27.10
2022-08-08T12:46:59.277Z,27.40
2022-08-08T12:49:55.802Z,27.50
2022-08-08T12:52:54.769Z,28.40
2022-08-08T12:56:08.766Z,29.40
2022-08-08T12:59:03.351Z,30.60
2022-08-08T13:01:53.252Z,32.60
2022-08-08T13:04:51.196Z,34.30
2022-08-08T13:08:03.899Z,36.30
2022-08-08T13:10:56.437Z,37.60
2022-08-08T13:13:51.902Z,37.80
2022-08-08T13:16:42.007Z,38.10
2022-08-08T13:19:49.857Z,37.10
2022-08-08T13:22:46.550Z,37.20
2022-08-08T13:25:36.078Z,37.70
2022-08-08T13:28:32.354Z,38.90
2022-08-08T13:31:20.884Z,39.40
2022-08-08T13:34:21.250Z,40.60
2022-08-08T13:37:19.810Z,42.40
2022-08-08T13:40:27.948Z,42.40
2022-08-08T13:43:17.188Z,43.10
2022-08-08T13:46:26.384Z,40.90
2022-08-08T13:50:35.883Z,39.00
2022-08-08T13:52:37.577Z,37.50
2022-08-08T13:55:29.095Z,35.30
2022-08-08T13:58:19.943Z,33.10
2022-08-08T14:01:16.932Z,31.20
2022-08-08T14:04:05.971Z,30.40
2022-08-08T14:07:01.151Z,30.20
2022-08-08T14:10:04.327Z,30.00
2022-08-08T14:12:57.908Z,30.30
2022-08-08T14:15:50.461Z,31.90
2022-08-08T14:18:52.034Z,34.20
2022-08-08T14:21:48.714Z,35.60
2022-08-08T14:24:38.905Z,36.20
2022-08-08T14:27:34.095Z,36.20
2022-08-08T14:30:22.973Z,36.30
2022-08-08T14:33:15.213Z,37.50
2022-08-08T14:36:04.957Z,39.60
2022-08-08T14:38:58.729Z,41.00
2022-08-08T14:41:54.805Z,41.70
2022-08-08T14:44:43.086Z,42.10
2022-08-08T14:47:45.416Z,37.50
2022-08-08T14:50:39.769Z,37.10
2022-08-08T14:53:37.413Z,35.60
2022-08-08T14:56:43.336Z,34.70
2022-08-08T14:59:44.244Z,36.40
2022-08-08T15:02:58.210Z,38.30
2022-08-08T15:05:54.272Z,39.90
2022-08-08T15:08:54.563Z,40.70
2022-08-08T15:11:46.521Z,41.70
2022-08-08T15:14:42.715Z,41.80
2022-08-08T15:17:30.897Z,41.00
2022-08-08T15:20:19.370Z,40.90
2022-08-08T15:23:07.426Z,39.30
2022-08-08T15:25:57.174Z,37.50
2022-08-08T15:28:45.275Z,34.20
2022-08-08T15:32:03.712Z,33.20
2022-08-08T15:34:42.762Z,32.80
2022-08-08T15:37:31.153Z,37.80
2022-08-08T15:40:19.496Z,37.80
2022-08-08T15:43:18.765Z,40.00
2022-08-08T15:46:15.796Z,42.00
2022-08-08T15:49:05.361Z,42.40
2022-08-08T15:51:54.443Z,43.90
2022-08-08T15:54:46.248Z,44.40
2022-08-08T15:57:39.960Z,44.50
2022-08-08T16:00:28.627Z,44.50
2022-08-08T16:03:16.822Z,44.60
2022-08-08T16:06:06.455Z,44.50
2022-08-08T16:13:03.965Z,44.70
2022-08-08T16:13:09.628Z,44.80
2022-08-08T16:15:18.890Z,45.00
2022-08-08T16:18:12.020Z,45.20
2022-08-08T16:21:01.241Z,45.00
2022-08-08T16:23:52.114Z,43.90
2022-08-08T16:26:44.732Z,43.80
2022-08-08T16:30:08.315Z,43.20
2022-08-08T16:32:48.355Z,43.30
2022-08-08T16:35:36.695Z,42.50
2022-08-08T16:38:31.446Z,41.70
2022-08-08T16:41:22.705Z,42.00
2022-08-08T16:44:12.803Z,42.10
2022-08-08T16:47:16.065Z,42.70
2022-08-08T16:50:09.826Z,42.70
2022-08-08T16:55:03.228Z,41.50
2022-08-08T16:56:14.168Z,41.20
2022-08-08T16:59:04.604Z,41.30
2022-08-08T17:01:52.630Z,40.90
2022-08-08T17:04:40.951Z,40.70
2022-08-08T17:07:33.120Z,39.60
2022-08-08T17:10:26.089Z,39.40
2022-08-08T17:13:14.245Z,39.00
2022-08-08T17:16:05.732Z,39.30
2022-08-08T17:19:03.227Z,39.80
2022-08-08T17:21:51.323Z,40.20
2022-08-08T17:24:39.376Z,40.70
2022-08-08T17:27:29.016Z,39.30
2022-08-08T17:30:30.226Z,39.20
2022-08-08T17:34:36.543Z,39.00
2022-08-08T17:36:31.024Z,39.20
2022-08-08T17:39:45.946Z,39.60
2022-08-08T17:42:28.969Z,40.10
2022-08-08T17:45:22.437Z,40.00
2022-08-08T17:48:15.030Z,39.00
2022-08-08T17:51:20.436Z,38.50
2022-08-08T17:54:13.756Z,36.50
2022-08-08T17:57:02.281Z,34.30
2022-08-08T17:59:51.713Z,32.50
2022-08-08T18:02:40.306Z,31.00
2022-08-08T18:05:48.123Z,29.90
2022-08-08T18:08:43.481Z,28.60
2022-08-08T18:11:32.444Z,28.40
2022-08-08T18:14:24.833Z,28.00
2022-08-08T18:17:17.560Z,27.70
2022-08-08T18:20:42.731Z,27.50
2022-08-08T18:23:24.503Z,27.10
2022-08-08T18:26:13.869Z,27.00
2022-08-08T18:29:02.239Z,26.80
2022-08-08T18:31:54.002Z,26.60
2022-08-08T18:34:43.017Z,26.40
2022-08-08T18:37:34.060Z,26.10
2022-08-08T18:40:35.279Z,25.80
2022-08-08T18:43:37.785Z,25.70
2022-08-08T18:46:55.277Z,25.60
2022-08-08T18:49:57.498Z,25.50
2022-08-08T18:52:47.255Z,25.20
2022-08-08T18:55:40.591Z,25.00
2022-08-08T18:58:33.529Z,24.90
2022-08-08T19:02:27.928Z,24.80
2022-08-08T19:04:30.296Z,24.60
2022-08-08T19:07:22.819Z,24.40
2022-08-08T19:10:14.347Z,24.20
2022-08-08T19:13:04.377Z,24.10
2022-08-08T19:16:00.237Z,24.00
2022-08-08T19:19:00.007Z,23.80
2022-08-08T19:21:50.065Z,23.90
2022-08-08T19:25:02.000Z,23.60
2022-08-08T19:27:55.640Z,23.60
2022-08-08T19:31:03.374Z,23.40
2022-08-08T19:34:29.711Z,23.30
2022-08-08T19:37:02.063Z,23.30
2022-08-08T19:39:51.238Z,23.20
2022-08-08T19:42:39.602Z,23.10
2022-08-08T19:45:58.777Z,23.00
2022-08-08T19:48:36.684Z,22.90
2022-08-08T19:51:34.337Z,22.80
2022-08-08T19:54:27.609Z,22.70
2022-08-08T19:57:15.829Z,22.60
2022-08-08T20:00:11.262Z,22.60
2022-08-08T20:04:01.675Z,22.40
2022-08-08T20:06:23.041Z,22.20
2022-08-08T20:09:12.434Z,22.20
2022-08-08T20:12:06.931Z,22.20
2022-08-08T20:14:57.485Z,22.10
2022-08-08T20:17:47.814Z,22.10
2022-08-08T20:20:36.513Z,21.90
2022-08-08T20:23:30.957Z,21.90
2022-08-08T20:26:27.511Z,21.80
2022-08-08T20:29:18.152Z,21.70
2022-08-08T20:32:13.102Z,21.70
2022-08-08T20:35:02.804Z,21.60
2022-08-08T20:37:54.723Z,21.60
2022-08-08T20:40:43.043Z,21.60
2022-08-08T20:43:43.804Z,21.60
2022-08-08T20:46:37.722Z,21.40
2022-08-08T20:49:32.356Z,21.40
2022-08-08T20:52:29.942Z,21.30
2022-08-08T20:55:25.675Z,21.30
2022-08-08T20:58:22.978Z,21.20
2022-08-08T21:01:20.056Z,21.10
2022-08-08T21:04:08.541Z,21.00
2022-08-08T21:07:02.854Z,21.00
2022-08-08T21:10:07.913Z,21.00
2022-08-08T21:13:01.057Z,20.90
2022-08-08T21:16:04.745Z,20.90
2022-08-08T21:18:58.815Z,20.80
2022-08-08T21:21:54.642Z,20.70
2022-08-08T21:24:52.512Z,20.80
2022-08-08T21:28:09.743Z,20.60
2022-08-08T21:30:52.084Z,20.70
2022-08-08T21:33:40.509Z,20.50
2022-08-08T21:36:30.611Z,20.40
2022-08-08T21:39:19.329Z,20.40
2022-08-08T21:42:10.119Z,20.30
2022-08-08T21:45:01.074Z,20.30
2022-08-08T21:48:21.864Z,20.40
2022-08-08T21:51:16.457Z,20.20
2022-08-08T21:54:52.102Z,20.20
2022-08-08T21:57:42.966Z,20.10
2022-08-08T22:00:41.970Z,20.10
2022-08-08T22:03:30.699Z,20.10
2022-08-08T22:06:31.013Z,20.00
2022-08-08T22:09:19.954Z,20.00
2022-08-08T22:12:17.225Z,19.90
2022-08-08T22:15:07.210Z,19.90
2022-08-08T22:17:55.454Z,19.80
2022-08-08T22:20:45.461Z,19.90
2022-08-08T22:23:34.953Z,19.70
2022-08-08T22:26:28.845Z,19.70
2022-08-08T22:30:01.149Z,19.70
2022-08-08T22:32:28.182Z,19.60
2022-08-08T22:35:16.216Z,19.60
2022-08-08T22:38:12.130Z,19.70
2022-08-08T22:41:16.433Z,19.70
2022-08-08T22:44:09.447Z,19.60
2022-08-08T22:46:59.751Z,19.60
2022-08-08T22:50:20.785Z,19.70
2022-08-08T22:54:28.095Z,19.50
2022-08-08T22:56:21.738Z,19.50
2022-08-08T22:59:18.514Z,19.40
2022-08-08T23:02:13.039Z,19.40
2022-08-08T23:05:02.107Z,19.30
2022-08-08T23:07:57.219Z,19.20
2022-08-08T23:10:45.933Z,19.10
2022-08-08T23:13:42.271Z,19.10
2022-08-08T23:16:43.337Z,19.10
2022-08-08T23:19:34.034Z,19.00
2022-08-08T23:22:22.234Z,18.90
2022-08-08T23:25:10.709Z,18.90
2022-08-08T23:28:06.258Z,18.80
2022-08-08T23:30:54.541Z,18.70
2022-08-08T23:34:18.543Z,18.70
2022-08-08T23:36:57.978Z,18.70
2022-08-08T23:39:49.559Z,18.60
2022-08-08T23:42:45.166Z,18.40
2022-08-08T23:49:00.919Z,18.50
2022-08-08T23:49:01.796Z,18.40
2022-08-08T23:52:06.471Z,18.30
2022-08-08T23:55:07.201Z,18.30
2022-08-08T23:58:02.886Z,18.20
